createdAt,value
2019-03-15T00:00:33.045Z,23.12
2019-03-15T00:01:33.039Z,23.32
2019-03-15T00:02:33.011Z,23.22
2019-03-15T00:03:32.982Z,22.83
2019-03-15T00:04:32.973Z,22.92
2019-03-15T00:05:36.448Z,23.02
2019-03-15T00:06:32.923Z,23.32
2019-03-15T00:07:33.401Z,23.22
2019-03-15T00:08:33.727Z,22.92
2019-03-15T00:09:32.856Z,23.41
2019-03-15T00:10:32.826Z,23.12
2019-03-15T00:11:32.814Z,23.02
2019-03-15T00:12:32.782Z,23.41
2019-03-15T00:13:32.767Z,22.92
2019-03-15T00:14:32.739Z,23.41
2019-03-15T00:15:32.727Z,23.41
2019-03-15T00:16:32.704Z,22.92
2019-03-15T00:17:32.674Z,23.41
2019-03-15T00:18:32.647Z,23.41
2019-03-15T00:19:32.645Z,22.92
2019-03-15T00:20:32.631Z,23.41
2019-03-15T00:21:32.582Z,23.6
2019-03-15T00:22:32.556Z,23.41
2019-03-15T00:23:32.546Z,23.41
2019-03-15T00:24:32.526Z,23.41
2019-03-15T00:25:32.550Z,23.22
2019-03-15T00:26:32.512Z,23.22
2019-03-15T00:27:32.450Z,23.22
2019-03-15T00:28:32.440Z,23.22
2019-03-15T00:29:32.415Z,23.22
2019-03-15T00:30:32.392Z,23.41
2019-03-15T00:31:32.368Z,23.41
2019-03-15T00:32:32.901Z,23.41
2019-03-15T00:33:32.332Z,23.12
2019-03-15T00:34:32.305Z,23.32
2019-03-15T00:35:32.279Z,23.22
2019-03-15T00:36:32.250Z,23.12
2019-03-15T00:37:33.192Z,23.22
2019-03-15T00:38:32.215Z,23.22
2019-03-15T00:39:32.193Z,23.12
2019-03-15T00:40:32.160Z,23.12
2019-03-15T00:41:32.145Z,23.12
2019-03-15T00:42:32.119Z,23.41
2019-03-15T00:43:32.115Z,23.41
2019-03-15T00:44:32.071Z,23.41
2019-03-15T00:45:32.064Z,23.41
2019-03-15T00:46:32.031Z,23.02
2019-03-15T00:47:32.017Z,23.22
2019-03-15T00:48:31.996Z,22.92
2019-03-15T00:49:31.966Z,23.32
2019-03-15T00:50:31.940Z,23.22
2019-03-15T00:51:31.927Z,23.12
2019-03-15T00:52:31.908Z,22.92
2019-03-15T00:53:31.878Z,23.32
2019-03-15T00:54:31.851Z,23.32
2019-03-15T00:55:31.829Z,23.22
2019-03-15T00:56:31.816Z,23.12
2019-03-15T00:57:31.791Z,23.12
2019-03-15T00:58:31.774Z,23.22
2019-03-15T00:59:31.741Z,23.22
2019-03-15T01:00:31.749Z,23.22
2019-03-15T01:01:31.703Z,23.32
2019-03-15T01:02:31.685Z,23.22
2019-03-15T01:03:31.652Z,23.32
2019-03-15T01:04:31.631Z,23.32
2019-03-15T01:05:31.614Z,23.22
2019-03-15T01:06:31.601Z,23.12
2019-03-15T01:07:31.569Z,23.32
2019-03-15T01:08:31.542Z,23.32
2019-03-15T01:09:31.589Z,23.12
2019-03-15T01:10:31.267Z,23.12
2019-03-15T01:11:31.486Z,23.22
2019-03-15T01:12:31.455Z,23.12
2019-03-15T01:13:31.200Z,23.02
2019-03-15T01:14:31.571Z,23.12
2019-03-15T01:15:31.399Z,22.83
2019-03-15T01:16:31.366Z,23.12
2019-03-15T01:17:31.351Z,22.92
2019-03-15T01:18:31.320Z,23.22
2019-03-15T01:19:31.309Z,23.32
2019-03-15T01:20:31.451Z,23.12
2019-03-15T01:21:31.258Z,23.02
2019-03-15T01:22:31.239Z,23.02
2019-03-15T01:23:31.220Z,23.02
2019-03-15T01:24:31.198Z,23.12
2019-03-15T01:25:31.347Z,23.02
2019-03-15T01:26:31.154Z,23.12
2019-03-15T01:27:31.133Z,22.83
2019-03-15T01:28:31.098Z,23.02
2019-03-15T01:29:31.083Z,23.12
2019-03-15T01:30:31.056Z,22.83
2019-03-15T01:31:31.046Z,22.83
2019-03-15T01:32:31.011Z,22.92
2019-03-15T01:33:30.994Z,23.12
2019-03-15T01:34:30.971Z,22.83
2019-03-15T01:35:33.530Z,22.74
2019-03-15T01:36:30.937Z,22.83
2019-03-15T01:37:30.908Z,22.83
2019-03-15T01:38:30.879Z,23.12
2019-03-15T01:39:30.867Z,22.92
2019-03-15T01:40:30.847Z,22.64
2019-03-15T01:41:30.832Z,22.92
2019-03-15T01:42:30.790Z,22.92
2019-03-15T01:43:30.768Z,23.02
2019-03-15T01:44:30.757Z,22.92
2019-03-15T01:45:30.747Z,22.83
2019-03-15T01:46:30.716Z,22.54
2019-03-15T01:47:30.684Z,22.54
2019-03-15T01:48:30.669Z,22.44
2019-03-15T01:49:30.645Z,22.44
2019-03-15T01:50:30.626Z,22.54
2019-03-15T01:51:30.597Z,22.74
2019-03-15T01:52:30.570Z,22.54
2019-03-15T01:53:30.552Z,22.54
2019-03-15T01:54:30.538Z,22.34
2019-03-15T01:55:30.510Z,22.44
2019-03-15T01:56:30.482Z,22.54
2019-03-15T01:57:30.464Z,22.83
2019-03-15T01:58:30.449Z,22.74
2019-03-15T01:59:30.427Z,22.74
2019-03-15T02:00:30.393Z,22.64
2019-03-15T02:01:30.849Z,22.64
2019-03-15T02:02:30.352Z,22.74
2019-03-15T02:04:30.304Z,22.74
2019-03-15T02:05:30.287Z,22.64
2019-03-15T02:06:30.261Z,22.74
2019-03-15T02:07:30.251Z,22.74
2019-03-15T02:08:30.232Z,22.74
2019-03-15T02:09:30.200Z,22.64
2019-03-15T02:10:30.201Z,22.74
2019-03-15T02:11:30.157Z,22.74
2019-03-15T02:12:29.915Z,22.64
2019-03-15T02:13:30.109Z,22.64
2019-03-15T02:14:30.161Z,22.64
2019-03-15T02:15:30.065Z,22.64
2019-03-15T02:16:29.806Z,22.74
2019-03-15T02:17:30.022Z,22.64
2019-03-15T02:18:30.007Z,22.64
2019-03-15T02:19:29.991Z,22.54
2019-03-15T02:20:29.962Z,22.54
2019-03-15T02:21:29.935Z,22.44
2019-03-15T02:22:29.915Z,22.54
2019-03-15T02:23:29.642Z,22.44
2019-03-15T02:24:29.861Z,22.44
2019-03-15T02:25:30.065Z,22.64
2019-03-15T02:26:29.838Z,22.44
2019-03-15T02:27:29.802Z,22.44
2019-03-15T02:28:29.771Z,22.44
2019-03-15T02:29:29.760Z,22.44
2019-03-15T02:30:29.741Z,22.54
2019-03-15T02:31:29.722Z,22.44
2019-03-15T02:32:29.687Z,22.64
2019-03-15T02:33:29.673Z,22.64
2019-03-15T02:34:30.058Z,22.64
2019-03-15T02:35:29.631Z,22.74
2019-03-15T02:36:29.616Z,22.54
2019-03-15T02:37:29.338Z,22.64
2019-03-15T02:38:29.686Z,22.44
2019-03-15T02:39:29.553Z,22.54
2019-03-15T02:40:29.521Z,22.54
2019-03-15T02:41:29.493Z,22.54
2019-03-15T02:42:29.464Z,22.74
2019-03-15T02:43:29.457Z,22.54
2019-03-15T02:44:29.447Z,22.64
2019-03-15T02:45:29.404Z,22.64
2019-03-15T02:46:29.379Z,22.64
2019-03-15T02:47:29.355Z,22.74
2019-03-15T02:48:29.347Z,22.64
2019-03-15T02:49:29.324Z,22.74
2019-03-15T02:50:29.504Z,22.44
2019-03-15T02:51:29.272Z,22.74
2019-03-15T02:52:29.257Z,22.64
2019-03-15T02:53:29.231Z,22.64
2019-03-15T02:54:29.935Z,22.83
2019-03-15T02:55:29.178Z,22.74
2019-03-15T02:56:29.159Z,22.64
2019-03-15T02:57:29.142Z,22.64
2019-03-15T02:58:30.431Z,22.64
2019-03-15T02:59:29.102Z,22.44
2019-03-15T03:00:29.069Z,22.54
2019-03-15T03:01:29.057Z,22.74
2019-03-15T03:02:30.097Z,22.44
2019-03-15T03:03:28.769Z,22.54
2019-03-15T03:04:28.989Z,22.54
2019-03-15T03:05:28.975Z,22.44
2019-03-15T03:06:30.505Z,22.44
2019-03-15T03:07:28.916Z,22.54
2019-03-15T03:08:28.908Z,22.54
2019-03-15T03:09:28.876Z,22.64
2019-03-15T03:10:29.320Z,22.44
2019-03-15T03:11:28.828Z,22.54
2019-03-15T03:12:28.972Z,22.54
2019-03-15T03:13:28.786Z,22.44
2019-03-15T03:14:28.779Z,22.54
2019-03-15T03:15:28.821Z,22.54
2019-03-15T03:16:28.712Z,22.54
2019-03-15T03:17:28.703Z,22.54
2019-03-15T03:18:28.711Z,22.54
2019-03-15T03:19:28.796Z,22.44
2019-03-15T03:20:28.628Z,22.64
2019-03-15T03:21:28.614Z,22.06
2019-03-15T03:22:28.587Z,22.64
2019-03-15T03:23:28.569Z,22.06
2019-03-15T03:24:28.536Z,22.16
2019-03-15T03:25:28.517Z,22.64
2019-03-15T03:26:28.490Z,22.25
2019-03-15T03:27:28.479Z,22.25
2019-03-15T03:28:28.463Z,22.16
2019-03-15T03:29:28.447Z,21.96
2019-03-15T03:30:28.437Z,22.06
2019-03-15T03:31:28.426Z,22.16
2019-03-15T03:32:28.385Z,22.16
2019-03-15T03:33:28.362Z,22.16
2019-03-15T03:34:28.323Z,22.16
2019-03-15T03:35:28.304Z,21.96
2019-03-15T03:36:28.363Z,22.34
2019-03-15T03:37:28.255Z,22.34
2019-03-15T03:38:28.273Z,22.16
2019-03-15T03:39:28.205Z,22.06
2019-03-15T03:40:29.059Z,22.34
2019-03-15T03:41:28.185Z,22.34
2019-03-15T03:42:28.153Z,22.34
2019-03-15T03:43:28.114Z,22.34
2019-03-15T03:44:28.094Z,22.34
2019-03-15T03:45:28.077Z,22.34
2019-03-15T03:46:28.060Z,22.34
2019-03-15T03:47:28.031Z,22.34
2019-03-15T03:48:28.049Z,22.34
2019-03-15T03:49:28.012Z,22.34
2019-03-15T03:50:27.971Z,22.34
2019-03-15T03:51:27.952Z,22.44
2019-03-15T03:52:27.917Z,22.34
2019-03-15T03:53:27.899Z,22.44
2019-03-15T03:54:27.888Z,22.34
2019-03-15T03:55:28.347Z,22.25
2019-03-15T03:56:27.828Z,22.44
2019-03-15T03:57:28.516Z,22.34
2019-03-15T03:58:27.543Z,22.34
2019-03-15T03:59:27.834Z,22.44
2019-03-15T04:00:27.878Z,22.44
2019-03-15T04:01:27.723Z,22.44
2019-03-15T04:02:27.696Z,22.44
2019-03-15T04:03:27.726Z,22.44
2019-03-15T04:04:27.683Z,22.34
2019-03-15T04:05:27.632Z,22.16
2019-03-15T04:06:27.606Z,22.44
2019-03-15T04:07:27.582Z,22.25
2019-03-15T04:08:27.575Z,22.34
2019-03-15T04:09:27.546Z,22.06
2019-03-15T04:10:27.528Z,22.06
2019-03-15T04:11:27.496Z,22.06
2019-03-15T04:12:27.485Z,22.06
2019-03-15T04:13:27.457Z,22.06
2019-03-15T04:14:27.441Z,22.06
2019-03-15T04:15:27.501Z,22.16
2019-03-15T04:16:27.385Z,22.06
2019-03-15T04:17:27.491Z,22.06
2019-03-15T04:18:27.366Z,21.96
2019-03-15T04:19:27.323Z,22.16
2019-03-15T04:20:27.295Z,22.06
2019-03-15T04:21:27.281Z,22.06
2019-03-15T04:22:27.262Z,22.06
2019-03-15T04:23:27.241Z,21.96
2019-03-15T04:24:27.209Z,22.06
2019-03-15T04:25:27.225Z,22.06
2019-03-15T04:26:27.162Z,21.96
2019-03-15T04:27:27.156Z,21.96
2019-03-15T04:28:27.119Z,22.16
2019-03-15T04:29:27.103Z,22.06
2019-03-15T04:30:27.247Z,22.06
2019-03-15T04:31:27.067Z,22.44
2019-03-15T04:32:27.045Z,22.34
2019-03-15T04:33:27.014Z,22.06
2019-03-15T04:34:28.303Z,22.16
2019-03-15T04:35:27.246Z,22.06
2019-03-15T04:36:26.953Z,22.34
2019-03-15T04:37:26.927Z,22.16
2019-03-15T04:38:26.898Z,22.16
2019-03-15T04:39:26.875Z,22.34
2019-03-15T04:40:26.865Z,22.34
2019-03-15T04:41:26.844Z,22.34
2019-03-15T04:42:26.823Z,22.34
2019-03-15T04:43:26.786Z,22.34
2019-03-15T04:44:26.778Z,22.34
2019-03-15T04:45:26.750Z,22.34
2019-03-15T04:46:26.732Z,22.25
2019-03-15T04:47:26.700Z,22.34
2019-03-15T04:48:26.678Z,22.16
2019-03-15T04:49:26.662Z,22.25
2019-03-15T04:50:26.643Z,22.25
2019-03-15T04:51:26.615Z,22.34
2019-03-15T04:52:26.586Z,22.25
2019-03-15T04:53:26.573Z,22.25
2019-03-15T04:54:26.560Z,22.34
2019-03-15T04:55:26.534Z,22.34
2019-03-15T04:56:26.501Z,22.25
2019-03-15T04:57:26.484Z,22.25
2019-03-15T04:58:26.459Z,22.34
2019-03-15T04:59:26.931Z,22.34
2019-03-15T05:00:26.411Z,22.34
2019-03-15T05:01:26.398Z,22.34
2019-03-15T05:02:26.370Z,22.34
2019-03-15T05:03:26.413Z,22.25
2019-03-15T05:04:26.422Z,22.34
2019-03-15T05:05:26.325Z,22.34
2019-03-15T05:06:26.285Z,22.44
2019-03-15T05:07:26.269Z,22.25
2019-03-15T05:08:26.245Z,22.44
2019-03-15T05:09:26.219Z,22.06
2019-03-15T05:10:25.991Z,22.44
2019-03-15T05:11:26.170Z,22.44
2019-03-15T05:12:26.158Z,22.06
2019-03-15T05:13:26.137Z,21.96
2019-03-15T05:14:26.128Z,21.96
2019-03-15T05:15:26.123Z,21.96
2019-03-15T05:16:26.070Z,22.06
2019-03-15T05:17:26.044Z,22.06
2019-03-15T05:18:26.025Z,22.06
2019-03-15T05:19:25.995Z,22.06
2019-03-15T05:20:25.989Z,22.25
2019-03-15T05:21:25.960Z,22.06
2019-03-15T05:22:25.935Z,22.06
2019-03-15T05:23:25.908Z,22.06
2019-03-15T05:24:26.250Z,22.16
2019-03-15T05:25:25.863Z,22.06
2019-03-15T05:26:25.851Z,22.34
2019-03-15T05:27:25.831Z,22.16
2019-03-15T05:28:25.824Z,22.44
2019-03-15T05:29:25.622Z,22.44
2019-03-15T05:30:25.759Z,22.25
2019-03-15T05:31:25.738Z,22.25
2019-03-15T05:32:25.724Z,22.25
2019-03-15T05:33:25.690Z,22.44
2019-03-15T05:34:26.124Z,22.44
2019-03-15T05:35:25.654Z,22.44
2019-03-15T05:36:25.634Z,22.34
2019-03-15T05:37:25.603Z,22.54
2019-03-15T05:38:25.583Z,22.34
2019-03-15T05:39:25.611Z,22.44
2019-03-15T05:40:25.539Z,22.06
2019-03-15T05:41:25.515Z,22.25
2019-03-15T05:42:25.482Z,22.34
2019-03-15T05:43:25.465Z,22.25
2019-03-15T05:44:25.452Z,22.06
2019-03-15T05:45:25.429Z,22.16
2019-03-15T05:46:25.453Z,22.06
2019-03-15T05:47:25.373Z,22.16
2019-03-15T05:48:25.362Z,22.16
2019-03-15T05:49:25.337Z,22.44
2019-03-15T05:50:25.357Z,22.25
2019-03-15T05:51:25.293Z,22.54
2019-03-15T05:52:25.621Z,22.44
2019-03-15T05:53:25.794Z,22.44
2019-03-15T05:54:25.775Z,22.64
2019-03-15T05:55:25.717Z,22.54
2019-03-15T05:56:25.741Z,22.44
2019-03-15T05:57:25.882Z,22.54
2019-03-15T05:58:25.290Z,22.54
2019-03-15T05:59:25.119Z,22.64
2019-03-15T06:00:25.093Z,22.64
2019-03-15T06:01:25.073Z,22.64
2019-03-15T06:02:25.041Z,22.64
2019-03-15T06:03:25.463Z,22.44
2019-03-15T06:04:24.999Z,22.44
2019-03-15T06:05:24.990Z,22.44
2019-03-15T06:06:24.952Z,22.64
2019-03-15T06:07:25.418Z,22.64
2019-03-15T06:08:27.514Z,22.64
2019-03-15T06:09:25.445Z,22.64
2019-03-15T06:10:25.197Z,22.44
2019-03-15T06:11:24.849Z,22.64
2019-03-15T06:12:24.882Z,22.74
2019-03-15T06:13:25.348Z,22.64
2019-03-15T06:14:24.896Z,22.54
2019-03-15T06:15:25.188Z,22.64
2019-03-15T06:16:25.282Z,22.64
2019-03-15T06:17:25.214Z,22.74
2019-03-15T06:18:25.161Z,22.34
2019-03-15T06:19:25.207Z,22.54
2019-03-15T06:20:24.694Z,22.64
2019-03-15T06:21:24.630Z,22.64
2019-03-15T06:22:24.613Z,22.54
2019-03-15T06:23:24.579Z,22.54
2019-03-15T06:24:24.565Z,22.44
2019-03-15T06:25:24.560Z,22.54
2019-03-15T06:26:24.527Z,22.64
2019-03-15T06:27:24.495Z,22.64
2019-03-15T06:28:24.905Z,22.64
2019-03-15T06:29:24.671Z,22.64
2019-03-15T06:30:25.079Z,22.74
2019-03-15T06:31:24.925Z,22.54
2019-03-15T06:32:24.738Z,22.44
2019-03-15T06:33:24.883Z,22.44
2019-03-15T06:34:24.658Z,22.83
2019-03-15T06:35:24.323Z,22.54
2019-03-15T06:36:24.708Z,22.92
2019-03-15T06:37:24.686Z,22.64
2019-03-15T06:38:24.261Z,23.02
2019-03-15T06:39:24.415Z,22.83
2019-03-15T06:40:24.565Z,22.83
2019-03-15T06:41:24.196Z,22.74
2019-03-15T06:42:24.714Z,22.83
2019-03-15T06:43:24.601Z,23.02
2019-03-15T06:44:24.116Z,23.02
2019-03-15T06:45:24.226Z,23.12
2019-03-15T06:46:24.084Z,22.83
2019-03-15T06:47:24.107Z,23.12
2019-03-15T06:48:24.454Z,23.22
2019-03-15T06:49:24.045Z,23.22
2019-03-15T06:50:23.984Z,23.22
2019-03-15T06:51:23.982Z,23.41
2019-03-15T06:52:23.943Z,23.22
2019-03-15T06:53:23.922Z,23.22
2019-03-15T06:54:23.986Z,23.02
2019-03-15T06:55:23.883Z,23.32
2019-03-15T06:56:23.863Z,23.02
2019-03-15T06:57:24.135Z,23.41
2019-03-15T06:58:24.309Z,23.12
2019-03-15T06:59:24.413Z,23.32
2019-03-15T07:00:24.280Z,23.41
2019-03-15T07:01:24.312Z,23.12
2019-03-15T07:02:24.277Z,23.22
2019-03-15T07:03:24.162Z,23.41
2019-03-15T07:04:23.687Z,23.22
2019-03-15T07:05:23.656Z,23.41
2019-03-15T07:06:23.642Z,23.22
2019-03-15T07:07:23.613Z,23.22
2019-03-15T07:08:24.067Z,23.41
2019-03-15T07:09:24.042Z,23.32
2019-03-15T07:10:24.122Z,23.41
2019-03-15T07:11:24.106Z,23.32
2019-03-15T07:12:23.498Z,23.6
2019-03-15T07:13:23.485Z,23.41
2019-03-15T07:14:23.911Z,23.5
2019-03-15T07:15:23.986Z,23.32
2019-03-15T07:16:24.359Z,23.12
2019-03-15T07:17:23.914Z,22.83
2019-03-15T07:18:23.954Z,23.12
2019-03-15T07:19:30.575Z,22.92
2019-03-15T07:20:23.345Z,23.02
2019-03-15T07:21:23.308Z,23.02
2019-03-15T07:22:23.292Z,23.22
2019-03-15T07:23:23.269Z,23.32
2019-03-15T07:24:28.007Z,23.22
2019-03-15T07:25:23.644Z,23.22
2019-03-15T07:26:23.771Z,23.22
2019-03-15T07:27:24.741Z,23.5
2019-03-15T07:28:23.698Z,23.12
2019-03-15T07:29:23.130Z,23.12
2019-03-15T07:30:23.127Z,23.12
2019-03-15T07:31:23.170Z,23.22
2019-03-15T07:32:23.588Z,23.22
2019-03-15T07:33:23.619Z,23.33
2019-03-15T07:34:23.627Z,23.6
2019-03-15T07:35:23.622Z,23.41
2019-03-15T07:36:23.652Z,23.41
2019-03-15T07:37:24.345Z,23.6
2019-03-15T07:38:23.484Z,23.9
2019-03-15T07:39:26.404Z,23.41
2019-03-15T07:40:23.065Z,23.7
2019-03-15T07:41:25.382Z,23.8
2019-03-15T07:42:23.095Z,23.71
2019-03-15T07:43:23.226Z,23.8
2019-03-15T07:44:22.794Z,23.7
2019-03-15T07:45:22.776Z,23.7
2019-03-15T07:46:22.761Z,23.61
2019-03-15T07:47:22.791Z,23.7
2019-03-15T07:48:26.859Z,23.7
2019-03-15T07:49:22.691Z,23.6
2019-03-15T07:50:22.712Z,23.6
2019-03-15T07:51:22.651Z,23.52
2019-03-15T07:52:22.623Z,23.6
2019-03-15T07:53:22.615Z,23.5
2019-03-15T07:54:22.572Z,23.41
2019-03-15T07:55:22.590Z,23.41
2019-03-15T07:56:22.842Z,23.5
2019-03-15T07:57:22.519Z,23.41
2019-03-15T07:58:22.487Z,23.52
2019-03-15T07:59:22.847Z,23.32
2019-03-15T08:00:22.743Z,23.23
2019-03-15T08:01:22.493Z,23.22
2019-03-15T08:02:22.436Z,23.33
2019-03-15T08:03:22.895Z,23.5
2019-03-15T08:04:22.369Z,23.9
2019-03-15T08:05:22.348Z,23.7
2019-03-15T08:06:33.958Z,23.9
2019-03-15T08:07:35.380Z,23.8
2019-03-15T08:08:22.303Z,24.09
2019-03-15T08:09:22.258Z,24.09
2019-03-15T08:10:22.244Z,24.18
2019-03-15T08:11:22.206Z,24.1
2019-03-15T08:12:22.236Z,24.09
2019-03-15T08:13:21.945Z,24.09
2019-03-15T08:14:22.148Z,23.99
2019-03-15T08:15:22.120Z,24.18
2019-03-15T08:16:22.090Z,24.28
2019-03-15T08:17:22.143Z,23.9
2019-03-15T08:18:22.057Z,24.18
2019-03-15T08:19:22.523Z,24.38
2019-03-15T08:20:22.001Z,24.09
2019-03-15T08:21:25.049Z,24.18
2019-03-15T08:22:21.970Z,24.28
2019-03-15T08:23:21.982Z,24.38
2019-03-15T08:24:21.676Z,24.09
2019-03-15T08:25:22.037Z,24.29
2019-03-15T08:26:22.005Z,24.19
2019-03-15T08:27:21.864Z,24.57
2019-03-15T08:28:21.966Z,24.19
2019-03-15T08:29:21.835Z,24.38
2019-03-15T08:30:21.783Z,24.38
2019-03-15T08:31:25.381Z,24.28
2019-03-15T08:32:21.768Z,24.29
2019-03-15T08:33:21.867Z,24.18
2019-03-15T08:34:21.765Z,24.39
2019-03-15T08:35:24.301Z,24.28
2019-03-15T08:36:22.915Z,24.38
2019-03-15T08:37:21.981Z,24.18
2019-03-15T08:38:21.621Z,23.99
2019-03-15T08:39:21.351Z,24.18
2019-03-15T08:40:21.842Z,23.99
2019-03-15T08:41:21.545Z,24.1
2019-03-15T08:42:21.563Z,24.1
2019-03-15T08:43:21.498Z,24.09
2019-03-15T08:44:21.497Z,24.67
2019-03-15T08:45:21.467Z,24.67
2019-03-15T08:46:21.446Z,24.77
2019-03-15T08:47:24.162Z,24.67
2019-03-15T08:48:21.481Z,24.57
2019-03-15T08:49:21.506Z,24.67
2019-03-15T08:50:24.351Z,24.67
2019-03-15T08:51:21.387Z,24.57
2019-03-15T08:52:21.201Z,24.38
2019-03-15T08:53:21.331Z,24.38
2019-03-15T08:54:21.281Z,24.49
2019-03-15T08:55:21.248Z,24.48
2019-03-15T08:56:21.216Z,24.48
2019-03-15T08:57:21.196Z,24.48
2019-03-15T08:58:24.493Z,24.57
2019-03-15T08:59:21.156Z,24.57
2019-03-15T09:00:21.132Z,24.96
2019-03-15T09:01:23.725Z,24.77
2019-03-15T09:02:21.078Z,24.86
2019-03-15T09:03:33.935Z,24.86
2019-03-15T09:04:24.021Z,24.96
2019-03-15T09:05:21.385Z,24.97
2019-03-15T09:06:21.055Z,24.96
2019-03-15T09:07:20.976Z,24.77
2019-03-15T09:08:20.955Z,24.67
2019-03-15T09:09:20.934Z,24.67
2019-03-15T09:10:26.122Z,24.77
2019-03-15T09:11:20.883Z,24.77
2019-03-15T09:12:20.873Z,24.86
2019-03-15T09:13:20.846Z,24.57
2019-03-15T09:14:20.828Z,24.97
2019-03-15T09:15:20.802Z,24.77
2019-03-15T09:16:20.836Z,24.77
2019-03-15T09:17:22.626Z,24.96
2019-03-15T09:18:20.739Z,25.44
2019-03-15T09:19:20.714Z,25.36
2019-03-15T09:20:20.704Z,25.44
2019-03-15T09:21:20.679Z,25.25
2019-03-15T09:22:20.660Z,25.44
2019-03-15T09:23:20.618Z,25.25
2019-03-15T09:24:20.646Z,25.35
2019-03-15T09:25:22.856Z,25.73
2019-03-15T09:26:20.626Z,25.35
2019-03-15T09:27:20.740Z,25.54
2019-03-15T09:28:20.514Z,25.73
2019-03-15T09:29:20.492Z,25.44
2019-03-15T09:30:26.328Z,25.44
2019-03-15T09:31:20.502Z,25.74
2019-03-15T09:32:20.421Z,25.94
2019-03-15T09:33:20.402Z,25.73
2019-03-15T09:34:20.807Z,25.73
2019-03-15T09:35:20.434Z,25.54
2019-03-15T09:36:20.341Z,25.63
2019-03-15T09:37:20.315Z,26.12
2019-03-15T09:38:20.297Z,25.83
2019-03-15T09:39:20.274Z,25.73
2019-03-15T09:40:20.280Z,25.83
2019-03-15T09:41:39.677Z,26.03
2019-03-15T09:42:20.205Z,26.03
2019-03-15T09:43:20.177Z,25.93
2019-03-15T09:44:20.173Z,26.21
2019-03-15T09:45:20.140Z,26.21
2019-03-15T09:46:20.313Z,26.12
2019-03-15T09:47:20.139Z,26.12
2019-03-15T09:48:20.078Z,26.12
2019-03-15T09:49:20.060Z,26.12
2019-03-15T09:50:34.176Z,26.04
2019-03-15T09:51:20.083Z,26.03
2019-03-15T09:52:19.977Z,26.03
2019-03-15T09:53:19.997Z,26.21
2019-03-15T09:54:19.946Z,26.03
2019-03-15T09:55:32.149Z,25.83
2019-03-15T09:56:19.895Z,26.04
2019-03-15T09:57:19.880Z,26.32
2019-03-15T09:58:19.848Z,26.21
2019-03-15T09:59:21.801Z,26.62
2019-03-15T10:00:19.876Z,26.51
2019-03-15T10:01:36.798Z,26.62
2019-03-15T10:02:32.671Z,26.52
2019-03-15T10:03:24.874Z,26.9
2019-03-15T10:04:19.838Z,26.72
2019-03-15T10:05:19.702Z,26.62
2019-03-15T10:06:22.030Z,26.62
2019-03-15T10:07:19.828Z,26.52
2019-03-15T10:08:23.260Z,26.72
2019-03-15T10:09:19.661Z,26.81
2019-03-15T10:10:21.400Z,26.62
2019-03-15T10:11:19.657Z,26.81
2019-03-15T10:12:19.552Z,26.9
2019-03-15T10:13:19.629Z,26.9
2019-03-15T10:14:19.706Z,26.81
2019-03-15T10:15:19.509Z,26.81
2019-03-15T10:16:19.621Z,26.9
2019-03-15T10:17:19.315Z,26.9
2019-03-15T10:18:19.715Z,26.72
2019-03-15T10:19:19.435Z,26.72
2019-03-15T10:20:19.403Z,26.72
2019-03-15T10:21:19.401Z,26.72
2019-03-15T10:22:19.432Z,26.81
2019-03-15T10:23:19.417Z,26.81
2019-03-15T10:24:19.289Z,26.52
2019-03-15T10:25:19.335Z,26.81
2019-03-15T10:26:19.296Z,26.9
2019-03-15T10:27:19.263Z,27.39
2019-03-15T10:28:19.204Z,27.39
2019-03-15T10:29:22.287Z,27.29
2019-03-15T10:30:19.274Z,27
2019-03-15T10:31:19.125Z,27.19
2019-03-15T10:32:19.191Z,27.29
2019-03-15T10:33:19.090Z,27.29
2019-03-15T10:34:19.249Z,27.29
2019-03-15T10:35:19.036Z,27.2
2019-03-15T10:36:19.260Z,27.29
2019-03-15T10:37:19.000Z,27.1
2019-03-15T10:38:19.331Z,27.29
2019-03-15T10:39:18.952Z,27.39
2019-03-15T10:40:18.688Z,27.39
2019-03-15T10:41:18.915Z,27.39
2019-03-15T10:42:18.657Z,27.29
2019-03-15T10:43:18.865Z,27.49
2019-03-15T10:44:18.960Z,27.49
2019-03-15T10:45:18.845Z,26.9
2019-03-15T10:46:18.836Z,27.78
2019-03-15T10:47:18.792Z,27.49
2019-03-15T10:48:27.867Z,27.58
2019-03-15T10:49:18.738Z,27.58
2019-03-15T10:50:18.711Z,27.58
2019-03-15T10:51:19.010Z,27.58
2019-03-15T10:52:18.424Z,27.68
2019-03-15T10:53:18.651Z,27.68
2019-03-15T10:54:18.655Z,27.39
2019-03-15T10:55:20.614Z,27.29
2019-03-15T10:56:18.592Z,27.39
2019-03-15T10:57:18.983Z,27.39
2019-03-15T10:58:19.065Z,27.58
2019-03-15T10:59:18.550Z,27.78
2019-03-15T11:00:18.875Z,27.68
2019-03-15T11:01:18.471Z,28.17
2019-03-15T11:02:18.452Z,27.68
2019-03-15T11:03:18.425Z,27.87
2019-03-15T11:04:18.415Z,27.87
2019-03-15T11:05:18.383Z,27.78
2019-03-15T11:06:18.369Z,27.87
2019-03-15T11:07:18.344Z,27.78
2019-03-15T11:08:18.326Z,28.07
2019-03-15T11:09:18.303Z,27.87
2019-03-15T11:10:18.286Z,27.87
2019-03-15T11:11:18.255Z,28.36
2019-03-15T11:12:18.228Z,28.17
2019-03-15T11:13:18.212Z,28.07
2019-03-15T11:14:18.212Z,28.07
2019-03-15T11:15:18.181Z,28.36
2019-03-15T11:16:18.139Z,28.36
2019-03-15T11:17:18.302Z,27.97
2019-03-15T11:18:18.116Z,27.87
2019-03-15T11:19:18.275Z,27.87
2019-03-15T11:20:18.130Z,27.97
2019-03-15T11:21:18.130Z,27.78
2019-03-15T11:22:18.012Z,28.17
2019-03-15T11:23:18.006Z,27.97
2019-03-15T11:24:17.968Z,27.87
2019-03-15T11:25:17.957Z,27.87
2019-03-15T11:26:17.926Z,27.87
2019-03-15T11:27:17.914Z,28.17
2019-03-15T11:28:17.890Z,28.17
2019-03-15T11:29:17.864Z,28.07
2019-03-15T11:30:17.864Z,28.17
2019-03-15T11:31:17.820Z,27.78
2019-03-15T11:32:17.802Z,27.97
2019-03-15T11:33:17.927Z,28.07
2019-03-15T11:34:17.748Z,28.07
2019-03-15T11:35:21.015Z,28.26
2019-03-15T11:36:17.866Z,28.45
2019-03-15T11:37:17.872Z,28.45
2019-03-15T11:38:17.821Z,28.36
2019-03-15T11:39:17.739Z,28.65
2019-03-15T11:40:21.403Z,28.26
2019-03-15T11:41:18.086Z,28.55
2019-03-15T11:42:17.583Z,28.36
2019-03-15T11:43:17.554Z,28.26
2019-03-15T11:44:17.615Z,28.17
2019-03-15T11:45:17.513Z,28.45
2019-03-15T11:46:19.146Z,28.45
2019-03-15T11:47:17.509Z,28.17
2019-03-15T11:48:17.448Z,28.36
2019-03-15T11:49:17.447Z,28.36
2019-03-15T11:50:17.411Z,28.17
2019-03-15T11:51:17.389Z,28.36
2019-03-15T11:52:17.353Z,28.36
2019-03-15T11:53:18.849Z,28.26
2019-03-15T11:54:17.361Z,28.45
2019-03-15T11:55:17.301Z,28.36
2019-03-15T11:56:29.166Z,28.45
2019-03-15T11:57:17.254Z,28.36
2019-03-15T11:58:17.303Z,28.45
2019-03-15T11:59:17.221Z,28.65
2019-03-15T12:00:17.197Z,28.38
2019-03-15T12:01:17.201Z,28.17
2019-03-15T12:02:16.906Z,28.26
2019-03-15T12:03:17.251Z,28.18
2019-03-15T12:04:17.158Z,28.36
2019-03-15T12:05:17.402Z,28.45
2019-03-15T12:06:17.092Z,28.38
2019-03-15T12:07:17.118Z,28.47
2019-03-15T12:08:17.168Z,28.07
2019-03-15T12:09:17.428Z,27.97
2019-03-15T12:10:16.978Z,28.17
2019-03-15T12:11:17.280Z,27.97
2019-03-15T12:12:17.215Z,28.07
2019-03-15T12:13:17.121Z,28.07
2019-03-15T12:14:17.372Z,28.08
2019-03-15T12:15:17.285Z,28.38
2019-03-15T12:16:17.305Z,28.18
2019-03-15T12:17:18.566Z,27.98
2019-03-15T12:18:17.261Z,28.56
2019-03-15T12:19:16.955Z,27.98
2019-03-15T12:20:17.141Z,28.47
2019-03-15T12:21:17.176Z,28.56
2019-03-15T12:22:17.186Z,28.56
2019-03-15T12:23:17.104Z,27.98
2019-03-15T12:24:16.839Z,28.36
2019-03-15T12:25:16.876Z,28.56
2019-03-15T12:26:16.664Z,28.76
2019-03-15T12:27:16.923Z,28.28
2019-03-15T12:28:16.775Z,28.47
2019-03-15T12:29:16.903Z,28.47
2019-03-15T12:30:16.912Z,28.55
2019-03-15T12:31:16.752Z,28.28
2019-03-15T12:32:17.081Z,28.66
2019-03-15T12:33:16.399Z,28.56
2019-03-15T12:34:16.953Z,28.66
2019-03-15T12:35:16.645Z,28.56
2019-03-15T12:36:16.871Z,28.47
2019-03-15T12:37:16.861Z,28.47
2019-03-15T12:38:16.604Z,28.56
2019-03-15T12:39:16.164Z,28.56
2019-03-15T12:40:16.790Z,28.47
2019-03-15T12:41:16.436Z,28.47
2019-03-15T12:42:16.384Z,28.38
2019-03-15T12:43:16.432Z,28.47
2019-03-15T12:44:16.621Z,28.56
2019-03-15T12:45:15.967Z,28.56
2019-03-15T12:46:16.193Z,28.28
2019-03-15T12:47:16.159Z,28.66
2019-03-15T12:48:16.136Z,28.08
2019-03-15T12:49:16.137Z,28.86
2019-03-15T12:50:16.104Z,28.18
2019-03-15T12:51:16.075Z,28.86
2019-03-15T12:52:16.058Z,28.86
2019-03-15T12:53:16.035Z,28.86
2019-03-15T12:54:16.378Z,28.86